createdAt,value
2019-04-22T00:01:50.396Z,75.60
2019-04-22T00:04:23.498Z,76.10
2019-04-22T00:07:06.611Z,75.20
2019-04-22T00:09:38.895Z,74.80
2019-04-22T00:12:07.031Z,74.10
2019-04-22T00:14:28.088Z,76.20
2019-04-22T00:17:07.023Z,75.80
2019-04-22T00:19:38.986Z,75.30
2019-04-22T00:22:02.867Z,74.60
2019-04-22T00:24:30.690Z,74.50
2019-04-22T00:26:57.374Z,76.20
2019-04-22T00:29:44.883Z,75.50
2019-04-22T00:31:58.987Z,75.50
2019-04-22T00:34:29.386Z,75.40
2019-04-22T00:37:01.027Z,75.70
2019-04-22T00:39:36.574Z,75.40
2019-04-22T00:42:03.291Z,77.20
2019-04-22T00:44:35.181Z,75.40
2019-04-22T00:46:59.554Z,75.00
2019-04-22T00:51:56.904Z,75.70
2019-04-22T00:54:25.309Z,76.70
2019-04-22T00:56:47.459Z,76.00
2019-04-22T00:59:17.369Z,75.90
2019-04-22T01:01:54.410Z,76.30
2019-04-22T01:04:20.391Z,76.10
2019-04-22T01:06:48.920Z,76.00
2019-04-22T01:09:34.853Z,76.70
2019-04-22T01:11:37.844Z,76.70
2019-04-22T01:14:06.247Z,76.60
2019-04-22T01:16:42.967Z,76.10
2019-04-22T01:19:09.049Z,75.90
2019-04-22T01:24:02.922Z,77.60
2019-04-22T01:26:31.302Z,78.00
2019-04-22T01:28:53.925Z,77.50
2019-04-22T01:31:17.958Z,77.50
2019-04-22T01:33:46.442Z,76.90
2019-04-22T01:36:26.019Z,76.40
2019-04-22T01:38:58.426Z,78.20
2019-04-22T01:41:32.446Z,79.20
2019-04-22T01:44:10.566Z,79.00
2019-04-22T01:46:31.968Z,78.20
2019-04-22T01:49:04.397Z,77.70
2019-04-22T01:51:36.335Z,77.20
2019-04-22T01:54:00.121Z,78.60
2019-04-22T01:56:24.263Z,78.00
2019-04-22T01:58:44.303Z,78.80
2019-04-22T02:01:23.791Z,78.20
2019-04-22T02:03:53.227Z,79.20
2019-04-22T02:06:15.751Z,78.80
2019-04-22T02:11:18.786Z,78.50
2019-04-22T02:13:43.098Z,80.10
2019-04-22T02:16:27.371Z,78.80
2019-04-22T02:18:39.327Z,78.80
2019-04-22T02:21:07.359Z,78.90
2019-04-22T02:23:47.187Z,79.10
2019-04-22T02:26:07.638Z,79.20
2019-04-22T02:39:02.425Z,80.60
2019-04-22T02:44:04.025Z,78.00
2019-04-22T02:46:39.236Z,77.90
2019-04-22T02:54:17.799Z,79.10
2019-04-22T02:56:27.505Z,79.70
2019-04-22T02:58:55.157Z,80.10
2019-04-22T03:03:50.555Z,78.90
2019-04-22T03:06:15.445Z,79.20
2019-04-22T03:08:43.336Z,78.40
2019-04-22T03:11:12.993Z,79.70
2019-04-22T03:13:46.823Z,79.20
2019-04-22T03:16:10.767Z,78.50
2019-04-22T03:18:42.117Z,79.50
2019-04-22T03:23:35.749Z,77.30
2019-04-22T03:26:11.515Z,79.40
2019-04-22T03:28:30.994Z,79.10
2019-04-22T03:31:21.324Z,78.80
2019-04-22T03:33:44.075Z,80.40
2019-04-22T03:36:05.231Z,82.70
2019-04-22T03:38:43.492Z,80.50
2019-04-22T03:43:35.941Z,83.50
2019-04-22T03:45:46.363Z,83.50
2019-04-22T03:48:26.098Z,83.20
2019-04-22T03:51:01.857Z,81.10
2019-04-22T03:53:21.220Z,81.00
2019-04-22T03:55:57.631Z,83.10
2019-04-22T03:58:11.103Z,82.70
2019-04-22T04:00:47.637Z,81.80
2019-04-22T04:03:17.155Z,81.10
2019-04-22T04:13:19.832Z,81.40
2019-04-22T04:15:53.557Z,80.70
2019-04-22T04:18:07.346Z,81.60
2019-04-22T04:20:36.914Z,80.60
2019-04-22T04:23:24.300Z,84.40
2019-04-22T04:28:57.550Z,81.70
2019-04-22T04:30:31.604Z,82.00
2019-04-22T04:33:13.410Z,82.40
2019-04-22T04:35:44.411Z,82.00
2019-04-22T04:47:57.956Z,81.50
2019-04-22T04:58:18.314Z,82.00
2019-04-22T05:00:40.154Z,80.40
2019-04-22T05:10:27.480Z,80.10
2019-04-22T05:12:57.101Z,79.50
2019-04-22T05:20:13.120Z,81.50
2019-04-22T05:22:33.652Z,80.50
2019-04-22T05:25:05.529Z,80.30
2019-04-22T05:30:21.476Z,79.00
2019-04-22T05:32:28.787Z,79.40
2019-04-22T05:34:52.975Z,78.00
2019-04-22T05:37:20.701Z,78.00
2019-04-22T05:39:51.998Z,76.90
2019-04-22T05:42:18.095Z,76.60
2019-04-22T05:44:49.660Z,77.70
2019-04-22T05:47:14.824Z,76.50
2019-04-22T05:49:41.721Z,76.10
2019-04-22T05:52:11.118Z,75.40
2019-04-22T05:54:42.772Z,76.00
2019-04-22T05:57:14.478Z,77.10
2019-04-22T05:59:37.735Z,75.70
2019-04-22T06:04:30.767Z,76.40
2019-04-22T06:07:04.931Z,75.90
2019-04-22T06:09:30.278Z,75.40
2019-04-22T06:11:55.592Z,75.20
2019-04-22T06:14:24.874Z,75.60
2019-04-22T06:17:02.000Z,75.10
2019-04-22T06:19:25.104Z,74.80
2019-04-22T06:21:57.991Z,74.90
2019-04-22T06:27:06.480Z,73.50
2019-04-22T06:29:19.694Z,72.90
2019-04-22T06:32:11.779Z,73.60
2019-04-22T06:34:22.358Z,72.70
2019-04-22T06:36:53.982Z,72.00
2019-04-22T06:39:25.956Z,73.20
2019-04-22T06:42:00.977Z,71.50
2019-04-22T06:46:41.903Z,72.30
2019-04-22T06:49:14.373Z,71.70
2019-04-22T06:51:38.925Z,71.70
2019-04-22T06:56:35.330Z,71.60
2019-04-22T06:59:09.999Z,71.80
2019-04-22T07:01:39.078Z,71.00
2019-04-22T07:06:41.648Z,70.70
2019-04-22T07:11:26.589Z,69.90
2019-04-22T07:14:01.128Z,70.00
2019-04-22T07:18:56.618Z,68.50
2019-04-22T07:21:24.300Z,68.40
2019-04-22T07:24:03.030Z,69.00
2019-04-22T07:26:18.929Z,69.30
2019-04-22T07:28:44.850Z,67.60
2019-04-22T07:31:15.789Z,67.30
2019-04-22T07:33:42.472Z,67.10
2019-04-22T07:36:38.253Z,67.00
2019-04-22T07:38:35.910Z,66.20
2019-04-22T07:41:05.513Z,65.20
2019-04-22T07:43:51.645Z,63.80
2019-04-22T07:46:07.169Z,62.50
2019-04-22T07:48:38.319Z,63.20
2019-04-22T07:53:28.925Z,61.40
2019-04-22T07:55:58.465Z,62.60
2019-04-22T07:58:30.756Z,62.10
2019-04-22T08:01:04.137Z,63.30
2019-04-22T08:03:51.457Z,64.10
2019-04-22T08:06:07.916Z,59.00
2019-04-22T08:08:27.594Z,58.30
2019-04-22T08:10:57.374Z,56.50
2019-04-22T08:13:25.352Z,56.40
2019-04-22T08:20:54.035Z,55.30
2019-04-22T08:23:25.942Z,55.70
2019-04-22T08:25:49.153Z,54.70
2019-04-22T08:28:17.540Z,54.30
2019-04-22T08:30:51.975Z,54.50
2019-04-22T08:33:21.803Z,53.60
2019-04-22T08:36:00.476Z,53.30
2019-04-22T08:38:11.517Z,54.00
2019-04-22T08:40:47.288Z,55.00
2019-04-22T08:43:20.907Z,54.40
2019-04-22T08:45:46.135Z,53.40
2019-04-22T08:48:07.754Z,53.60
2019-04-22T08:50:39.472Z,52.50
2019-04-22T08:53:10.998Z,52.60
2019-04-22T08:55:38.454Z,52.80
2019-04-22T08:58:25.117Z,52.20
2019-04-22T09:00:39.642Z,51.80
2019-04-22T09:03:04.437Z,52.50
2019-04-22T09:05:51.779Z,52.80
2019-04-22T09:08:09.076Z,51.60
2019-04-22T09:10:24.175Z,51.30
2019-04-22T09:13:00.632Z,52.40
2019-04-22T09:15:31.109Z,51.60
2019-04-22T09:18:02.283Z,50.70
2019-04-22T09:20:32.652Z,50.60
2019-04-22T09:23:04.558Z,50.30
2019-04-22T09:25:29.762Z,49.30
2019-04-22T09:28:07.307Z,48.60
2019-04-22T09:30:27.478Z,47.80
2019-04-22T09:32:54.442Z,48.50
2019-04-22T09:35:21.363Z,48.70
2019-04-22T09:40:22.311Z,48.80
2019-04-22T09:42:50.451Z,48.30
2019-04-22T09:45:15.545Z,47.50
2019-04-22T09:47:51.413Z,47.40
2019-04-22T09:50:16.418Z,47.60
2019-04-22T09:52:42.132Z,48.60
2019-04-22T09:55:12.492Z,47.60
2019-04-22T09:57:38.598Z,48.50
2019-04-22T10:00:10.978Z,47.80
2019-04-22T10:02:40.755Z,48.20
2019-04-22T10:05:07.718Z,48.00
2019-04-22T10:07:31.873Z,46.90
2019-04-22T10:10:13.384Z,47.30
2019-04-22T10:15:00.273Z,47.50
2019-04-22T10:17:25.873Z,45.50
2019-04-22T10:20:10.496Z,46.50
2019-04-22T10:25:01.697Z,44.60
2019-04-22T10:27:23.959Z,45.70
2019-04-22T10:29:53.733Z,44.60
2019-04-22T10:32:18.794Z,45.10
2019-04-22T10:34:34.806Z,45.20
2019-04-22T10:36:58.710Z,44.80
2019-04-22T10:39:35.277Z,46.00
2019-04-22T10:41:50.637Z,45.80
2019-04-22T10:44:17.620Z,44.90
2019-04-22T10:46:44.398Z,46.30
2019-04-22T10:49:12.532Z,45.40
2019-04-22T10:51:40.388Z,44.00
2019-04-22T10:54:07.474Z,43.40
2019-04-22T10:56:34.848Z,44.30
2019-04-22T10:59:02.586Z,43.70
2019-04-22T11:01:29.571Z,43.60
2019-04-22T11:03:57.160Z,43.60
2019-04-22T11:06:25.381Z,43.40
2019-04-22T11:08:57.503Z,43.50
2019-04-22T11:11:33.651Z,42.50
2019-04-22T11:13:49.651Z,42.90
2019-04-22T11:16:17.446Z,42.60
2019-04-22T11:18:45.454Z,44.40
2019-04-22T11:21:13.569Z,43.70
2019-04-22T11:23:40.810Z,43.80
2019-04-22T11:26:08.178Z,44.40
2019-04-22T11:28:35.909Z,44.80
2019-04-22T11:31:02.868Z,45.10
2019-04-22T11:33:30.429Z,43.80
2019-04-22T11:35:57.555Z,44.90
2019-04-22T11:38:24.634Z,42.30
2019-04-22T11:40:53.967Z,43.50
2019-04-22T11:43:20.112Z,42.30
2019-04-22T11:45:47.107Z,39.90
2019-04-22T11:48:15.315Z,40.30
2019-04-22T11:51:02.001Z,40.50
2019-04-22T11:53:29.051Z,40.20
2019-04-22T11:55:55.799Z,41.80
2019-04-22T11:58:22.478Z,41.80
2019-04-22T12:00:50.088Z,41.20
2019-04-22T12:03:18.825Z,40.40
2019-04-22T12:05:45.962Z,40.70
2019-04-22T12:08:13.218Z,39.30
2019-04-22T12:10:47.146Z,40.00
2019-04-22T12:13:10.124Z,40.00
2019-04-22T12:15:37.332Z,39.90
2019-04-22T12:18:04.283Z,39.70
2019-04-22T12:20:32.720Z,40.00
2019-04-22T12:23:01.029Z,38.90
2019-04-22T12:25:54.222Z,40.10
2019-04-22T12:28:17.206Z,40.40
2019-04-22T12:30:45.668Z,41.00
2019-04-22T12:33:14.557Z,39.60
2019-04-22T12:35:42.193Z,38.60
2019-04-22T12:38:11.147Z,37.20
2019-04-22T12:40:45.435Z,37.30
2019-04-22T12:43:08.184Z,37.10
2019-04-22T12:45:34.511Z,35.60
2019-04-22T12:48:02.134Z,36.00
2019-04-22T12:50:33.839Z,34.70
2019-04-22T12:53:03.216Z,34.50
2019-04-22T12:55:26.134Z,35.60
2019-04-22T12:57:55.379Z,35.10
2019-04-22T13:00:22.454Z,36.40
2019-04-22T13:02:49.341Z,37.70
2019-04-22T13:05:16.370Z,37.80
2019-04-22T13:07:44.201Z,39.50
2019-04-22T13:10:13.629Z,39.20
2019-04-22T13:12:40.707Z,39.70
2019-04-22T13:15:14.111Z,40.30
2019-04-22T13:17:42.158Z,39.70
2019-04-22T13:20:12.548Z,38.80
2019-04-22T13:22:38.938Z,38.20
2019-04-22T13:25:10.204Z,37.10
2019-04-22T13:27:37.139Z,36.50
2019-04-22T13:30:08.240Z,37.00
2019-04-22T13:32:36.719Z,37.00
2019-04-22T13:35:07.171Z,37.80
2019-04-22T13:37:36.926Z,36.80
2019-04-22T13:40:07.339Z,36.80
2019-04-22T13:42:35.467Z,38.50
2019-04-22T13:45:05.283Z,38.60
2019-04-22T13:47:46.555Z,37.40
2019-04-22T13:50:32.564Z,36.40
2019-04-22T13:53:07.191Z,37.00
2019-04-22T13:55:23.900Z,37.40
2019-04-22T13:57:42.633Z,37.30
2019-04-22T13:59:58.145Z,37.00
2019-04-22T14:02:32.737Z,37.20
2019-04-22T14:05:01.060Z,37.80
2019-04-22T14:07:28.643Z,38.20
2019-04-22T14:09:56.079Z,37.40
2019-04-22T14:12:22.928Z,36.60
2019-04-22T14:14:52.147Z,36.80
2019-04-22T14:17:18.794Z,36.70
2019-04-22T14:19:46.591Z,36.60
2019-04-22T14:22:13.797Z,37.00
2019-04-22T14:24:40.754Z,37.00
2019-04-22T14:27:24.670Z,37.00
2019-04-22T14:29:37.583Z,36.90
2019-04-22T14:32:12.771Z,36.70
2019-04-22T14:34:34.191Z,37.00
2019-04-22T14:37:01.493Z,37.30
2019-04-22T14:39:28.276Z,37.20
2019-04-22T14:42:13.949Z,36.70
2019-04-22T14:45:15.491Z,37.10
2019-04-22T14:49:46.225Z,37.10
2019-04-22T14:52:11.732Z,37.10
2019-04-22T14:54:33.849Z,36.70
2019-04-22T14:56:46.680Z,37.30
2019-04-22T14:59:13.473Z,37.80
2019-04-22T15:01:41.497Z,37.50
2019-04-22T15:04:08.949Z,36.60
2019-04-22T15:06:36.090Z,37.10
2019-04-22T15:09:06.064Z,36.60
2019-04-22T15:11:43.687Z,36.30
2019-04-22T15:14:01.344Z,36.30
2019-04-22T15:16:38.168Z,36.10
2019-04-22T15:19:07.668Z,36.40
2019-04-22T15:21:34.649Z,36.60
2019-04-22T15:24:04.519Z,36.60
2019-04-22T15:26:32.654Z,35.50
2019-04-22T15:28:59.913Z,36.60
2019-04-22T15:31:27.213Z,36.50
2019-04-22T15:33:54.365Z,36.70
2019-04-22T15:36:22.234Z,37.80
2019-04-22T15:38:49.198Z,38.30
2019-04-22T15:41:16.693Z,38.00
2019-04-22T15:43:43.738Z,37.50
2019-04-22T15:46:11.665Z,37.20
2019-04-22T15:48:39.851Z,37.10
2019-04-22T15:51:06.885Z,37.00
2019-04-22T15:53:33.921Z,36.90
2019-04-22T15:56:00.854Z,36.90
2019-04-22T15:58:28.153Z,37.30
2019-04-22T16:01:06.520Z,37.00
2019-04-22T16:03:24.728Z,37.50
2019-04-22T16:05:52.197Z,37.10
2019-04-22T16:08:19.248Z,37.10
2019-04-22T16:10:46.293Z,37.20
2019-04-22T16:13:20.179Z,37.10
2019-04-22T16:15:42.814Z,37.60
2019-04-22T16:18:12.584Z,37.10
2019-04-22T16:20:38.404Z,37.60
2019-04-22T16:23:07.799Z,38.40
2019-04-22T16:25:51.751Z,38.80
2019-04-22T16:28:39.551Z,39.30
2019-04-22T16:31:07.251Z,39.40
2019-04-22T16:33:37.115Z,39.70
2019-04-22T16:36:02.877Z,40.00
2019-04-22T16:38:30.900Z,40.00
2019-04-22T16:40:58.872Z,40.10
2019-04-22T16:43:26.606Z,40.20
2019-04-22T16:45:53.785Z,39.40
2019-04-22T16:48:21.932Z,38.90
2019-04-22T16:50:50.665Z,39.20
2019-04-22T16:53:18.906Z,40.30
2019-04-22T16:55:46.658Z,41.00
2019-04-22T16:58:14.676Z,40.30
2019-04-22T17:00:42.769Z,39.50
2019-04-22T17:03:28.920Z,39.40
2019-04-22T17:06:03.557Z,39.20
2019-04-22T17:08:32.862Z,39.30
2019-04-22T17:10:59.846Z,39.70
2019-04-22T17:13:30.594Z,40.30
2019-04-22T17:15:58.568Z,41.20
2019-04-22T17:18:25.350Z,40.40
2019-04-22T17:20:53.275Z,40.80
2019-04-22T17:23:20.154Z,41.00
2019-04-22T17:25:48.208Z,41.00
2019-04-22T17:28:15.452Z,41.20
2019-04-22T17:30:43.614Z,41.20
2019-04-22T17:33:10.642Z,41.40
2019-04-22T17:35:38.206Z,41.60
2019-04-22T17:38:16.647Z,41.80
2019-04-22T17:40:51.158Z,42.40
2019-04-22T17:43:36.157Z,42.70
2019-04-22T17:46:12.041Z,42.70
2019-04-22T17:48:59.418Z,42.80
2019-04-22T17:51:31.465Z,43.00
2019-04-22T17:53:58.879Z,43.50
2019-04-22T17:56:27.337Z,43.10
2019-04-22T17:58:52.930Z,44.20
2019-04-22T18:01:19.122Z,44.70
2019-04-22T18:03:33.867Z,45.20
2019-04-22T18:06:01.942Z,46.00
2019-04-22T18:08:45.676Z,46.90
2019-04-22T18:11:24.466Z,47.60
2019-04-22T18:13:50.586Z,48.00
2019-04-22T18:16:16.271Z,49.00
2019-04-22T18:18:43.172Z,49.30
2019-04-22T18:21:05.066Z,49.90
2019-04-22T18:23:25.144Z,50.60
2019-04-22T18:26:05.440Z,51.00
2019-04-22T18:28:42.199Z,51.00
2019-04-22T18:31:01.104Z,51.60
2019-04-22T18:33:28.942Z,51.60
2019-04-22T18:36:02.642Z,52.30
2019-04-22T18:38:44.010Z,52.30
2019-04-22T18:40:57.331Z,52.60
2019-04-22T18:43:28.765Z,53.10
2019-04-22T18:46:03.754Z,54.00
2019-04-22T18:48:12.495Z,54.60
2019-04-22T18:51:04.824Z,55.30
2019-04-22T18:53:44.792Z,56.00
2019-04-22T18:56:16.063Z,55.80
2019-04-22T18:58:36.670Z,56.00
2019-04-22T19:00:51.292Z,56.10
2019-04-22T19:03:25.319Z,56.80
2019-04-22T19:06:20.072Z,57.40
2019-04-22T19:08:36.738Z,57.50
2019-04-22T19:11:08.196Z,58.00
2019-04-22T19:16:19.365Z,58.90
2019-04-22T19:18:37.948Z,59.60
2019-04-22T19:21:03.013Z,59.50
2019-04-22T19:23:28.498Z,61.00
2019-04-22T19:25:52.321Z,60.20
2019-04-22T19:28:29.381Z,60.90
2019-04-22T19:31:02.720Z,61.90
2019-04-22T19:33:19.131Z,61.70
2019-04-22T19:35:51.964Z,65.60
2019-04-22T19:38:12.238Z,61.70
2019-04-22T19:41:03.130Z,61.70
2019-04-22T19:43:22.902Z,62.00
2019-04-22T19:45:40.072Z,61.90
2019-04-22T19:48:21.793Z,63.20
2019-04-22T19:50:52.709Z,63.30
2019-04-22T19:53:17.801Z,63.00
2019-04-22T19:55:41.200Z,62.90
2019-04-22T19:58:07.324Z,63.30
2019-04-22T20:00:49.284Z,62.50
2019-04-22T20:03:52.386Z,62.90
2019-04-22T20:06:26.823Z,62.00
2019-04-22T20:08:59.258Z,60.30
2019-04-22T20:11:29.903Z,60.90
2019-04-22T20:13:56.887Z,59.30
2019-04-22T20:16:24.617Z,59.40
2019-04-22T20:18:56.944Z,59.00
2019-04-22T20:21:22.419Z,59.00
2019-04-22T20:23:43.061Z,59.00
2019-04-22T20:26:15.962Z,58.80
2019-04-22T20:28:46.580Z,58.90
2019-04-22T20:31:19.259Z,58.80
2019-04-22T20:33:54.516Z,58.90
2019-04-22T20:36:26.751Z,59.10
2019-04-22T20:38:39.953Z,58.70
2019-04-22T20:41:08.975Z,58.90
2019-04-22T20:43:46.959Z,59.00
2019-04-22T20:46:08.624Z,59.10
2019-04-22T20:48:46.945Z,59.50
2019-04-22T20:51:04.256Z,59.50
2019-04-22T20:53:38.050Z,59.10
2019-04-22T20:56:04.226Z,59.10
2019-04-22T20:58:34.215Z,58.90
2019-04-22T21:00:55.789Z,59.90
2019-04-22T21:03:23.479Z,59.20
2019-04-22T21:05:53.050Z,60.50
2019-04-22T21:08:35.079Z,61.20
2019-04-22T21:10:52.054Z,60.40
2019-04-22T21:13:26.102Z,61.40
2019-04-22T21:16:07.347Z,61.10
2019-04-22T21:18:25.344Z,61.60
2019-04-22T21:20:56.206Z,62.00
2019-04-22T21:23:18.880Z,61.00
2019-04-22T21:25:39.388Z,62.40
2019-04-22T21:28:21.602Z,61.20
2019-04-22T21:30:48.166Z,61.10
2019-04-22T21:33:13.576Z,60.60
2019-04-22T21:36:08.424Z,60.50
2019-04-22T21:38:15.155Z,60.80
2019-04-22T21:40:45.627Z,60.00
2019-04-22T21:43:12.669Z,60.00
2019-04-22T21:45:35.371Z,60.90
2019-04-22T21:48:20.192Z,60.20
2019-04-22T21:53:10.676Z,62.10
2019-04-22T21:55:37.942Z,62.40
2019-04-22T21:58:16.101Z,62.10
2019-04-22T22:00:53.463Z,61.50
2019-04-22T22:03:17.784Z,62.10
2019-04-22T22:05:30.218Z,63.40
2019-04-22T22:08:02.848Z,62.80
2019-04-22T22:10:40.254Z,62.10
2019-04-22T22:13:06.226Z,61.20
2019-04-22T22:15:35.070Z,62.70
2019-04-22T22:18:02.057Z,62.90
2019-04-22T22:20:30.970Z,62.60
2019-04-22T22:23:12.931Z,63.20
2019-04-22T22:25:32.026Z,64.10
2019-04-22T22:28:00.950Z,64.80
2019-04-22T22:30:45.866Z,63.70
2019-04-22T22:33:01.606Z,63.20
2019-04-22T22:35:25.717Z,64.00
2019-04-22T22:38:01.716Z,63.50
2019-04-22T22:40:14.591Z,63.70
2019-04-22T22:42:40.460Z,63.70
2019-04-22T22:45:14.175Z,63.50
2019-04-22T22:47:53.419Z,64.40
2019-04-22T22:50:25.940Z,64.80
2019-04-22T22:53:11.228Z,64.40
2019-04-22T22:55:29.633Z,65.30
2019-04-22T22:57:58.458Z,65.20
2019-04-22T23:00:19.447Z,65.00
2019-04-22T23:03:13.767Z,65.70
2019-04-22T23:05:23.696Z,66.20
2019-04-22T23:07:55.463Z,65.50
2019-04-22T23:10:17.866Z,65.40
2019-04-22T23:12:48.850Z,66.40
2019-04-22T23:15:10.599Z,66.50
2019-04-22T23:17:26.643Z,65.70
2019-04-22T23:19:53.829Z,65.40
2019-04-22T23:22:31.242Z,65.40
2019-04-22T23:25:21.448Z,66.10
2019-04-22T23:27:47.240Z,66.40
2019-04-22T23:30:20.827Z,65.80
2019-04-22T23:32:51.763Z,66.20
2019-04-22T23:35:36.575Z,65.60
2019-04-22T23:38:10.780Z,65.90
2019-04-22T23:40:54.144Z,66.40
2019-04-22T23:43:15.802Z,68.50
2019-04-22T23:45:46.683Z,68.50
2019-04-22T23:48:10.210Z,67.50
2019-04-22T23:50:45.955Z,67.10
2019-04-22T23:53:31.575Z,68.30
2019-04-22T23:55:43.648Z,72.80
2019-04-22T23:58:19.254Z,73.70
